Time;durP1;ratioP1;P1;durP2;ratioP2;P2;SDS_P1;SDS_P2;PMS_P1;PMS_P2;Temp;Humidity;BMP_temperature;BMP_pressure;BME280_temperature;BME280_humidity;BME280_pressure;Samples;Min_cycle;Max_cycle;Signal;HPM_P1;HPM_P2
2022/04/21 00:00:28;;;;;;;;;;;;;;;4.01;96.57;99652.31;4975484;28;915;-59
2022/04/21 00:02:55;;;;;;;;;;;;;;;4.07;96.27;99659.88;4975433;28;934;-59
2022/04/21 00:05:22;;;;;;;;;;;;;;;4.00;96.66;99665.22;4975458;28;889;-59
2022/04/21 00:07:49;;;;;;;;;;;;;;;4.03;96.75;99671.91;4975447;28;795;-59
2022/04/21 00:10:17;;;;;;;;;;;;;;;3.97;97.40;99679.63;4975266;28;1890;-59
2022/04/21 00:12:44;;;;;;;;;;;;;;;3.97;97.57;99678.81;4975341;28;869;-59
2022/04/21 00:15:11;;;;;;;;;;;;;;;4.02;97.58;99681.28;4975337;28;879;-59
2022/04/21 00:17:38;;;;;;;;;;;;;;;4.03;97.69;99678.19;4975441;28;890;-59
2022/04/21 00:20:05;;;;;;;;;;;;;;;4.11;97.47;99681.81;4975206;28;842;-59
2022/04/21 00:25:17;;;;;;;;;;;;;;;4.20;97.31;99698.00;4975152;28;645;-59
2022/04/21 00:27:44;;;;;;;;;;;;;;;4.21;97.44;99697.66;4974918;28;1552;-59
2022/04/21 00:30:12;;;;;;;;;;;;;;;4.15;97.75;99699.09;4974901;28;1911;-59
2022/04/21 00:32:40;;;;;;;;;;;;;;;4.05;98.43;99708.69;4975228;28;863;-59
2022/04/21 00:35:08;;;;;;;;;;;;;;;3.99;98.51;99707.41;4974931;28;871;-59
2022/04/21 00:37:43;;;;;;;;;;;;;;;3.91;99.05;99700.19;4974947;28;878;-59
2022/04/21 00:40:10;;;;;;;;;;;;;;;3.84;98.82;99700.84;4957418;28;1361;-59
2022/04/21 00:42:37;;;;;;;;;;;;;;;3.79;98.99;99701.13;4975498;28;756;-59
2022/04/21 00:45:03;;;;;;;;;;;;;;;3.79;99.49;99706.59;4974725;28;827;-59
2022/04/21 00:47:31;;;;;;;;;;;;;;;3.79;99.63;99706.59;4974706;28;847;-59
2022/04/21 00:49:57;;;;;;;;;;;;;;;3.75;100.00;99704.94;4974670;28;1882;-59
2022/04/21 00:52:24;;;;;;;;;;;;;;;3.68;100.00;99694.66;4974549;28;831;-59
2022/04/21 00:54:51;;;;;;;;;;;;;;;3.74;99.46;99689.69;4974793;28;894;-59
2022/04/21 00:57:17;;;;;;;;;;;;;;;3.68;98.76;99684.50;4973492;28;854;-59
2022/04/21 00:59:47;;;;;;;;;;;;;;;3.54;98.14;99683.41;4957153;28;1305;-59
2022/04/21 01:04:59;;;;;;;;;;;;;;;3.19;99.56;99676.78;4974404;28;627;-59
2022/04/21 01:07:26;;;;;;;;;;;;;;;3.02;100.00;99671.72;4974338;28;855;-59
2022/04/21 01:09:57;;;;;;;;;;;;;;;2.72;99.89;99664.00;4974086;28;1977;-59
2022/04/21 01:12:25;;;;;;;;;;;;;;;2.45;100.00;99671.13;4974412;28;963;-59
2022/04/21 01:14:51;;;;;;;;;;;;;;;2.34;100.00;99676.28;4974524;28;851;-59
2022/04/21 01:17:30;;;;;;;;;;;;;;;2.32;100.00;99686.75;4974326;28;834;-59
2022/04/21 01:19:56;;;;;;;;;;;;;;;2.47;100.00;99682.47;4974110;28;811;-59
2022/04/21 01:22:23;;;;;;;;;;;;;;;2.56;100.00;99668.66;4974051;28;859;-59
2022/04/21 01:24:49;;;;;;;;;;;;;;;2.53;100.00;99672.88;4974010;28;883;-59
2022/04/21 01:27:17;;;;;;;;;;;;;;;2.41;100.00;99681.94;4973684;28;1312;-59
2022/04/21 01:29:43;;;;;;;;;;;;;;;2.24;100.00;99665.88;4973859;28;1914;-59
2022/04/21 01:32:10;;;;;;;;;;;;;;;2.12;100.00;99674.94;4956511;28;1278;-59
2022/04/21 01:34:37;;;;;;;;;;;;;;;1.91;100.00;99679.81;4973860;28;870;-59
2022/04/21 01:42:33;;;;;;;;;;;;;;;1.41;100.00;99687.34;4973730;28;705;-59
2022/04/21 01:44:59;;;;;;;;;;;;;;;1.45;100.00;99677.34;4973663;28;859;-59
2022/04/21 01:47:26;;;;;;;;;;;;;;;1.54;100.00;99671.78;4973539;28;870;-59
2022/04/21 01:49:53;;;;;;;;;;;;;;;1.52;100.00;99680.28;4973549;28;1915;-59
2022/04/21 01:52:19;;;;;;;;;;;;;;;1.58;100.00;99684.34;4973523;28;973;-59
2022/04/21 01:54:50;;;;;;;;;;;;;;;1.61;100.00;99701.94;4973448;28;871;-59
2022/04/21 01:57:20;;;;;;;;;;;;;;;1.69;100.00;99692.84;4973318;28;944;-59
2022/04/21 01:59:49;;;;;;;;;;;;;;;1.67;100.00;99697.84;4973319;28;1048;-59
2022/04/21 02:02:16;;;;;;;;;;;;;;;1.80;100.00;99706.78;4973293;28;863;-59
2022/04/21 02:04:42;;;;;;;;;;;;;;;2.18;100.00;99700.03;4973343;28;811;-59
2022/04/21 02:07:09;;;;;;;;;;;;;;;2.60;100.00;99711.28;4955692;28;913;-59
2022/04/21 02:09:35;;;;;;;;;;;;;;;2.88;100.00;99710.41;4973220;28;883;-59
2022/04/21 02:12:02;;;;;;;;;;;;;;;3.06;100.00;99708.88;4973152;28;1907;-59
2022/04/21 02:14:28;;;;;;;;;;;;;;;3.17;100.00;99703.66;4973165;28;824;-59
2022/04/21 02:16:54;;;;;;;;;;;;;;;3.25;100.00;99699.19;4973188;28;879;-59
2022/04/21 02:19:21;;;;;;;;;;;;;;;3.31;100.00;99713.34;4955713;28;911;-59
2022/04/21 02:21:48;;;;;;;;;;;;;;;3.19;100.00;99722.44;4973299;28;1061;-59
2022/04/21 02:24:14;;;;;;;;;;;;;;;3.12;100.00;99725.03;4973198;28;815;-59
2022/04/21 02:26:41;;;;;;;;;;;;;;;2.92;100.00;99729.59;4972841;28;1272;-59
2022/04/21 02:29:07;;;;;;;;;;;;;;;2.78;100.00;99730.03;4972891;28;871;-59
2022/04/21 02:31:33;;;;;;;;;;;;;;;2.73;100.00;99735.75;4972934;28;1914;-59
2022/04/21 02:34:00;;;;;;;;;;;;;;;2.54;100.00;99739.16;4972834;28;828;-59
2022/04/21 02:36:27;;;;;;;;;;;;;;;2.32;100.00;99740.53;4972905;28;863;-59
2022/04/21 02:38:53;;;;;;;;;;;;;;;2.42;100.00;99742.75;4972705;28;820;-59
2022/04/21 02:41:20;;;;;;;;;;;;;;;2.66;100.00;99739.09;4972983;28;1033;-59
2022/04/21 02:43:47;;;;;;;;;;;;;;;2.81;100.00;99734.78;4972824;28;839;-59
2022/04/21 02:46:14;;;;;;;;;;;;;;;2.93;100.00;99731.97;4972734;28;1176;-58
2022/04/21 02:48:41;;;;;;;;;;;;;;;3.03;100.00;99736.09;4972795;28;812;-59
2022/04/21 02:51:08;;;;;;;;;;;;;;;3.08;100.00;99735.06;4972573;28;1985;-59
2022/04/21 02:59:04;;;;;;;;;;;;;;;2.82;100.00;99717.28;4972735;28;626;-59
2022/04/21 03:01:30;;;;;;;;;;;;;;;2.88;100.00;99707.69;4972632;28;835;-59
2022/04/21 03:03:57;;;;;;;;;;;;;;;2.88;100.00;99712.31;4972776;28;855;-59
2022/04/21 03:06:23;;;;;;;;;;;;;;;2.58;100.00;99716.28;4972614;28;886;-59
2022/04/21 03:08:50;;;;;;;;;;;;;;;2.25;100.00;99711.91;4972764;28;863;-59
2022/04/21 03:11:17;;;;;;;;;;;;;;;2.11;100.00;99713.47;4972555;28;1940;-59
2022/04/21 03:13:43;;;;;;;;;;;;;;;1.93;100.00;99721.16;4955213;28;1179;-59
2022/04/21 03:16:09;;;;;;;;;;;;;;;1.95;100.00;99716.16;4972555;28;819;-59
2022/04/21 03:18:35;;;;;;;;;;;;;;;2.08;100.00;99706.78;4972478;28;913;-59
2022/04/21 03:26:32;;;;;;;;;;;;;;;2.45;100.00;99701.94;4975966;28;1296;-59
2022/04/21 03:28:57;;;;;;;;;;;;;;;2.81;100.00;99715.69;4976236;28;882;-59
2022/04/21 03:31:24;;;;;;;;;;;;;;;2.89;100.00;99719.38;4976005;28;1903;-59
2022/04/21 03:33:51;;;;;;;;;;;;;;;2.81;100.00;99724.66;4976053;28;999;-59
2022/04/21 03:36:18;;;;;;;;;;;;;;;2.81;100.00;99718.41;4976085;28;835;-59
2022/04/21 03:38:44;;;;;;;;;;;;;;;2.85;100.00;99711.09;4975905;28;843;-58
2022/04/21 03:41:11;;;;;;;;;;;;;;;2.85;100.00;99708.38;4976162;28;910;-59
2022/04/21 03:43:38;;;;;;;;;;;;;;;2.80;100.00;99698.50;4975925;28;831;-59
2022/04/21 03:46:04;;;;;;;;;;;;;;;2.85;100.00;99700.19;4975753;28;995;-59
2022/04/21 03:48:31;;;;;;;;;;;;;;;2.82;100.00;99703.63;4975780;28;863;-59
2022/04/21 03:50:57;;;;;;;;;;;;;;;2.71;100.00;99699.81;4976058;28;1878;-59
2022/04/21 03:53:24;;;;;;;;;;;;;;;2.60;100.00;99696.81;4975868;28;812;-59
2022/04/21 03:55:50;;;;;;;;;;;;;;;2.56;100.00;99695.94;4976029;28;894;-59
2022/04/21 03:58:17;;;;;;;;;;;;;;;2.70;100.00;99698.25;4975834;28;855;-59
2022/04/21 04:00:44;;;;;;;;;;;;;;;2.87;100.00;99700.63;4976060;28;757;-59
2022/04/21 04:03:10;;;;;;;;;;;;;;;2.90;100.00;99712.78;4975735;28;847;-59
2022/04/21 04:05:37;;;;;;;;;;;;;;;2.83;100.00;99711.44;4976237;28;772;-59
2022/04/21 04:10:52;;;;;;;;;;;;;;;2.83;100.00;99708.72;4975500;28;1928;-59
2022/04/21 04:13:22;;;;;;;;;;;;;;;2.96;100.00;99709.41;4975593;28;868;-59
2022/04/21 04:15:49;;;;;;;;;;;;;;;3.06;100.00;99708.09;4975557;28;823;-59
2022/04/21 04:18:16;;;;;;;;;;;;;;;3.19;100.00;99708.78;4975231;28;851;-59
2022/04/21 04:20:42;;;;;;;;;;;;;;;3.25;100.00;99718.28;4975186;28;835;-59
2022/04/21 04:23:08;;;;;;;;;;;;;;;3.24;100.00;99717.50;4975330;28;898;-59
2022/04/21 04:25:35;;;;;;;;;;;;;;;3.26;100.00;99715.22;4975149;28;1329;-59
2022/04/21 04:28:04;;;;;;;;;;;;;;;3.46;100.00;99709.81;4975516;28;854;-59
2022/04/21 04:30:34;;;;;;;;;;;;;;;3.72;100.00;99713.88;4974748;28;1911;-59
2022/04/21 04:33:01;;;;;;;;;;;;;;;3.80;100.00;99716.38;4975001;28;804;-59
2022/04/21 04:35:27;;;;;;;;;;;;;;;3.91;100.00;99721.28;4975106;28;816;-59
2022/04/21 04:37:54;;;;;;;;;;;;;;;4.08;100.00;99723.59;4974799;28;959;-59
2022/04/21 04:40:21;;;;;;;;;;;;;;;4.26;100.00;99734.88;4974923;28;974;-59
2022/04/21 04:42:47;;;;;;;;;;;;;;;4.59;100.00;99733.53;4974810;28;842;-59
2022/04/21 04:48:00;;;;;;;;;;;;;;;5.03;100.00;99744.84;4975675;28;688;-59
2022/04/21 04:50:26;;;;;;;;;;;;;;;5.25;100.00;99745.22;4974684;28;1940;-58
2022/04/21 04:52:59;;;;;;;;;;;;;;;5.37;100.00;99752.44;4975055;28;847;-59
2022/04/21 04:55:26;;;;;;;;;;;;;;;5.45;98.30;99751.38;4974541;28;855;-58
2022/04/21 04:57:53;;;;;;;;;;;;;;;5.53;98.86;99748.38;4974823;28;800;-59
2022/04/21 05:00:20;;;;;;;;;;;;;;;5.59;96.05;99740.63;4974502;28;835;-58
2022/04/21 05:02:45;;;;;;;;;;;;;;;5.68;94.58;99734.88;4974432;28;882;-59
2022/04/21 05:05:11;;;;;;;;;;;;;;;5.79;93.17;99738.53;4974605;28;795;-59
2022/04/21 05:07:39;;;;;;;;;;;;;;;6.02;92.67;99734.94;4974335;28;922;-59
2022/04/21 05:10:07;;;;;;;;;;;;;;;6.79;91.59;99738.91;4974519;28;1882;-59
2022/04/21 05:12:33;;;;;;;;;;;;;;;8.21;89.46;99734.69;4974362;28;846;-59
2022/04/21 05:15:00;;;;;;;;;;;;;;;8.89;82.32;99728.59;4974261;28;843;-59
2022/04/21 05:17:27;;;;;;;;;;;;;;;8.98;83.95;99737.25;4974195;28;812;-59
2022/04/21 05:19:54;;;;;;;;;;;;;;;9.34;80.11;99746.28;4974085;28;946;-59
2022/04/21 05:22:25;;;;;;;;;;;;;;;9.90;79.00;99752.13;4974115;28;847;-59
2022/04/21 05:24:52;;;;;;;;;;;;;;;10.62;75.19;99758.16;4973951;28;991;-59
2022/04/21 05:27:19;;;;;;;;;;;;;;;10.89;76.67;99756.78;4973838;28;1279;-60
2022/04/21 05:32:35;;;;;;;;;;;;;;;11.22;76.71;99780.25;4973937;28;626;-59
2022/04/21 05:35:03;;;;;;;;;;;;;;;11.09;75.75;99774.41;4973839;28;799;-59
2022/04/21 05:37:29;;;;;;;;;;;;;;;10.95;76.77;99791.13;4973820;28;851;-59
2022/04/21 05:39:56;;;;;;;;;;;;;;;10.40;74.34;99787.06;4973772;28;932;-59
2022/04/21 05:42:23;;;;;;;;;;;;;;;10.05;75.48;99782.44;4973381;28;903;-59
2022/04/21 05:44:52;;;;;;;;;;;;;;;10.66;73.62;99779.44;4973720;28;867;-59
2022/04/21 05:47:19;;;;;;;;;;;;;;;11.17;71.02;99784.22;4973649;28;816;-59
2022/04/21 05:49:46;;;;;;;;;;;;;;;11.49;69.79;99782.41;4973760;28;871;-60
2022/04/21 05:52:13;;;;;;;;;;;;;;;12.07;70.93;99785.41;4973486;28;1950;-60
2022/04/21 05:54:39;;;;;;;;;;;;;;;12.66;66.91;99790.63;4973579;28;800;-60
2022/04/21 05:57:06;;;;;;;;;;;;;;;12.64;66.39;99793.03;4973486;28;796;-60
2022/04/21 05:59:34;;;;;;;;;;;;;;;12.94;66.73;99794.97;4973367;28;820;-60
2022/04/21 06:02:01;;;;;;;;;;;;;;;13.12;66.82;99802.22;4973407;28;851;-60
2022/04/21 06:04:27;;;;;;;;;;;;;;;13.01;65.12;99800.41;4973190;28;808;-59
2022/04/21 06:06:54;;;;;;;;;;;;;;;13.13;65.74;99801.03;4973325;28;874;-59
2022/04/21 06:09:20;;;;;;;;;;;;;;;12.77;65.46;99785.69;4955832;28;1175;-59
2022/04/21 06:11:49;;;;;;;;;;;;;;;13.02;69.28;99790.88;4973153;28;1890;-59
2022/04/21 06:14:15;;;;;;;;;;;;;;;13.67;65.48;99796.19;4973061;28;926;-59
2022/04/21 06:16:41;;;;;;;;;;;;;;;13.86;66.87;99794.66;4955818;28;1162;-59
2022/04/21 06:19:08;;;;;;;;;;;;;;;14.57;65.84;99785.34;4972977;28;931;-59
2022/04/21 06:21:35;;;;;;;;;;;;;;;15.02;64.98;99779.97;4973115;28;808;-59
2022/04/21 06:24:01;;;;;;;;;;;;;;;15.01;60.98;99772.06;4973047;28;881;-59
2022/04/21 06:26:27;;;;;;;;;;;;;;;15.15;67.32;99785.66;4972764;28;1288;-60
2022/04/21 06:28:57;;;;;;;;;;;;;;;15.82;66.35;99787.97;4973020;28;874;-59
2022/04/21 06:31:23;;;;;;;;;;;;;;;16.15;68.04;99792.66;4972745;28;1934;-59
2022/04/21 06:33:50;;;;;;;;;;;;;;;16.76;68.61;99777.72;4973013;28;851;-59
2022/04/21 06:36:17;;;;;;;;;;;;;;;16.96;68.10;99766.34;4955603;28;888;-59
2022/04/21 06:38:44;;;;;;;;;;;;;;;17.00;65.81;99772.59;4972852;28;948;-59
2022/04/21 06:41:12;;;;;;;;;;;;;;;17.18;65.54;99766.47;4973148;28;1050;-59
2022/04/21 06:49:08;;;;;;;;;;;;;;;17.62;61.87;99777.75;4972788;28;713;-59
2022/04/21 06:51:35;;;;;;;;;;;;;;;17.64;64.47;99772.50;4955385;28;1954;-59
2022/04/21 06:54:01;;;;;;;;;;;;;;;17.88;64.00;99777.69;4973233;28;952;-59
2022/04/21 06:56:28;;;;;;;;;;;;;;;18.38;64.99;99775.13;4976851;28;803;-59
2022/04/21 06:58:55;;;;;;;;;;;;;;;18.54;63.75;99769.28;4976777;28;847;-59
2022/04/21 07:01:22;;;;;;;;;;;;;;;18.75;68.13;99773.28;4976625;28;831;-59
2022/04/21 07:03:50;;;;;;;;;;;;;;;18.87;69.09;99772.44;4976481;28;888;-59
2022/04/21 07:06:17;;;;;;;;;;;;;;;19.37;68.90;99767.63;4976581;28;874;-60
2022/04/21 07:08:43;;;;;;;;;;;;;;;19.13;61.38;99775.81;4976648;28;791;-59
2022/04/21 07:11:10;;;;;;;;;;;;;;;18.80;64.46;99769.94;4976318;28;1894;-60
2022/04/21 07:13:36;;;;;;;;;;;;;;;19.36;67.86;99768.84;4976403;28;930;-60
2022/04/21 07:16:03;;;;;;;;;;;;;;;19.24;62.57;99766.97;4976780;28;875;-60
2022/04/21 07:18:29;;;;;;;;;;;;;;;19.10;66.17;99768.34;4976570;28;863;-59
2022/04/21 07:20:57;;;;;;;;;;;;;;;19.30;59.51;99765.09;4959119;28;816;-59
2022/04/21 07:23:23;;;;;;;;;;;;;;;19.49;61.53;99762.34;4976660;28;823;-59
2022/04/21 07:25:50;;;;;;;;;;;;;;;19.83;62.30;99769.72;4976112;28;1251;-59
2022/04/21 07:28:16;;;;;;;;;;;;;;;19.61;59.76;99764.25;4976908;28;816;-59
2022/04/21 07:30:46;;;;;;;;;;;;;;;19.81;68.29;99771.44;4976622;28;1918;-59
2022/04/21 07:33:14;;;;;;;;;;;;;;;20.17;63.00;99763.00;4975956;28;903;-59
2022/04/21 07:35:42;;;;;;;;;;;;;;;20.02;66.37;99764.13;4958894;28;1794;-59
2022/04/21 07:38:09;;;;;;;;;;;;;;;19.83;58.25;99768.94;4976084;28;891;-59
2022/04/21 07:40:38;;;;;;;;;;;;;;;19.42;62.49;99763.44;4975972;28;945;-59
2022/04/21 07:43:08;;;;;;;;;;;;;;;19.27;65.55;99762.47;4958925;28;962;-59
2022/04/21 07:45:41;;;;;;;;;;;;;;;19.42;60.76;99769.03;4975943;28;882;-59
2022/04/21 07:48:08;;;;;;;;;;;;;;;19.90;63.42;99763.03;4975787;28;937;-59
2022/04/21 07:50:35;;;;;;;;;;;;;;;20.05;61.52;99761.13;4975640;28;1906;-59
2022/04/21 07:53:13;;;;;;;;;;;;;;;20.05;60.93;99758.31;4975591;28;914;-59
2022/04/21 07:55:40;;;;;;;;;;;;;;;19.73;58.70;99756.94;4975735;28;879;-59
2022/04/21 07:58:07;;;;;;;;;;;;;;;18.63;60.87;99755.38;4975655;28;851;-59
2022/04/21 08:00:36;;;;;;;;;;;;;;;18.36;63.26;99748.38;4975597;28;896;-59
2022/04/21 08:03:06;;;;;;;;;;;;;;;19.08;56.39;99742.81;4975293;28;888;-59
2022/04/21 08:05:33;;;;;;;;;;;;;;;19.60;61.21;99748.66;4975089;28;868;-58
2022/04/21 08:08:00;;;;;;;;;;;;;;;19.90;53.22;99749.00;4975659;28;811;-59
2022/04/21 08:10:29;;;;;;;;;;;;;;;20.12;57.80;99749.63;4975322;28;1882;-59
2022/04/21 08:12:58;;;;;;;;;;;;;;;19.78;51.03;99747.91;4975254;28;912;-59
2022/04/21 08:15:26;;;;;;;;;;;;;;;19.73;64.81;99745.72;4975240;28;916;-59
2022/04/21 08:18:00;;;;;;;;;;;;;;;19.10;62.83;99745.91;4975320;28;891;-59
2022/04/21 08:20:27;;;;;;;;;;;;;;;18.18;59.38;99745.47;4975376;28;883;-59
2022/04/21 08:22:54;;;;;;;;;;;;;;;18.05;61.10;99750.34;4975376;28;887;-59
2022/04/21 08:33:36;;;;;;;;;;;;;;;18.95;51.86;99745.72;4975217;28;649;-59
2022/04/21 08:36:03;;;;;;;;;;;;;;;17.65;53.58;99737.75;4974859;28;863;-59
2022/04/21 08:38:31;;;;;;;;;;;;;;;17.41;55.20;99739.38;4975004;28;808;-59
2022/04/21 08:40:58;;;;;;;;;;;;;;;17.65;60.01;99734.94;4974769;28;949;-59
2022/04/21 08:43:27;;;;;;;;;;;;;;;18.21;55.02;99738.97;4974887;28;835;-59
2022/04/21 08:45:54;;;;;;;;;;;;;;;18.35;53.22;99752.41;4974777;28;843;-59
2022/04/21 08:48:23;;;;;;;;;;;;;;;17.56;57.82;99740.47;4974797;28;792;-59
2022/04/21 08:50:50;;;;;;;;;;;;;;;18.02;58.68;99749.25;4974698;28;1882;-59
2022/04/21 08:53:21;;;;;;;;;;;;;;;18.30;56.60;99757.81;4974853;28;827;-59
2022/04/21 08:55:51;;;;;;;;;;;;;;;17.89;58.27;99754.13;4974735;28;930;-59
2022/04/21 08:58:19;;;;;;;;;;;;;;;17.63;53.32;99759.00;4974555;28;792;-59
2022/04/21 09:00:45;;;;;;;;;;;;;;;18.19;57.93;99758.22;4974601;28;835;-59
2022/04/21 09:03:12;;;;;;;;;;;;;;;18.82;49.61;99755.47;4957255;28;978;-59
2022/04/21 09:05:39;;;;;;;;;;;;;;;18.82;54.77;99747.84;4974439;28;831;-59
2022/04/21 09:08:16;;;;;;;;;;;;;;;18.17;57.35;99747.47;4956957;28;992;-59
2022/04/21 09:10:43;;;;;;;;;;;;;;;17.62;56.73;99743.44;4974310;28;1890;-59
2022/04/21 09:13:09;;;;;;;;;;;;;;;17.34;57.21;99743.97;4974203;28;837;-59
2022/04/21 09:15:43;;;;;;;;;;;;;;;16.81;54.01;99743.69;4974317;28;843;-59
2022/04/21 09:18:11;;;;;;;;;;;;;;;16.58;59.69;99750.38;4973366;28;911;-59
2022/04/21 09:20:39;;;;;;;;;;;;;;;16.78;56.63;99760.53;4974546;28;788;-59
2022/04/21 09:23:11;;;;;;;;;;;;;;;16.97;53.72;99753.97;4974125;28;895;-59
2022/04/21 09:25:55;;;;;;;;;;;;;;;17.72;57.57;99757.03;4974037;28;1226;-60
2022/04/21 09:28:33;;;;;;;;;;;;;;;17.94;55.17;99750.72;4974034;28;878;-59
2022/04/21 09:31:01;;;;;;;;;;;;;;;17.67;58.72;99759.66;4973856;28;1978;-58
2022/04/21 09:33:31;;;;;;;;;;;;;;;17.65;56.37;99770.50;4973899;28;912;-59
2022/04/21 09:35:59;;;;;;;;;;;;;;;16.86;55.14;99765.47;4973944;28;831;-59
2022/04/21 09:38:25;;;;;;;;;;;;;;;16.91;56.42;99775.31;4973941;28;832;-59
2022/04/21 09:40:52;;;;;;;;;;;;;;;17.18;62.72;99772.06;4956585;28;1039;-59
2022/04/21 09:43:28;;;;;;;;;;;;;;;17.15;57.54;99770.13;4973672;28;872;-59
2022/04/21 09:46:11;;;;;;;;;;;;;;;17.05;59.43;99762.91;4973593;28;967;-59
2022/04/21 09:48:38;;;;;;;;;;;;;;;17.27;63.23;99772.16;4974118;28;855;-59
2022/04/21 09:51:11;;;;;;;;;;;;;;;16.94;60.18;99766.03;4973774;28;1882;-59
2022/04/21 09:54:00;;;;;;;;;;;;;;;16.25;57.33;99786.00;4973538;28;883;-59
2022/04/21 09:56:33;;;;;;;;;;;;;;;16.31;57.89;99778.66;4973484;28;831;-59
2022/04/21 10:27:38;;;;;;;;;;;;;;;16.13;60.51;99774.38;4969889;28;1656;-59
2022/04/21 10:30:13;;;;;;;;;;;;;;;16.89;64.26;99766.59;4972864;28;1918;-60
2022/04/21 10:32:47;;;;;;;;;;;;;;;17.81;55.58;99761.16;4972872;28;878;-59
2022/04/21 10:35:27;;;;;;;;;;;;;;;17.86;55.58;99749.41;4972903;28;881;-60
2022/04/21 10:38:12;;;;;;;;;;;;;;;17.62;57.68;99743.44;4972879;28;846;-59
2022/04/21 10:40:56;;;;;;;;;;;;;;;16.71;59.62;99750.38;4972879;28;902;-60
2022/04/21 10:43:23;;;;;;;;;;;;;;;16.29;57.94;99748.41;4972993;28;855;-60
2022/04/21 10:46:06;;;;;;;;;;;;;;;17.06;60.74;99753.28;4972919;28;885;-60
2022/04/21 10:48:39;;;;;;;;;;;;;;;17.67;54.12;99754.06;4972756;28;1070;-59
2022/04/21 10:51:05;;;;;;;;;;;;;;;17.67;56.90;99754.06;4972563;28;1981;-60
2022/04/21 10:59:27;;;;;;;;;;;;;;;18.82;54.35;99753.47;4972961;28;685;-60
2022/04/21 11:01:54;;;;;;;;;;;;;;;19.42;56.12;99752.22;4973023;28;901;-60
2022/04/21 11:04:22;;;;;;;;;;;;;;;19.21;55.90;99759.50;4972970;28;862;-60
2022/04/21 11:06:51;;;;;;;;;;;;;;;19.25;52.95;99754.53;4972754;28;874;-58
2022/04/21 11:09:36;;;;;;;;;;;;;;;18.49;53.21;99756.69;4972529;28;930;-59
2022/04/21 11:12:04;;;;;;;;;;;;;;;18.02;52.38;99766.00;4972774;28;1878;-59
2022/04/21 11:14:33;;;;;;;;;;;;;;;17.42;54.10;99760.50;4972572;28;902;-60
2022/04/21 11:17:02;;;;;;;;;;;;;;;17.12;57.57;99765.47;4972583;28;810;-60
2022/04/21 11:19:29;;;;;;;;;;;;;;;17.32;58.21;99762.41;4972805;28;879;-60
2022/04/21 11:22:01;;;;;;;;;;;;;;;17.82;60.77;99757.94;4972427;28;800;-60
2022/04/21 11:24:48;;;;;;;;;;;;;;;18.54;59.59;99752.50;4972392;28;1023;-60
2022/04/21 11:27:16;;;;;;;;;;;;;;;19.69;57.80;99745.84;4972086;28;1390;-60
2022/04/21 11:29:42;;;;;;;;;;;;;;;19.66;51.57;99754.44;4972436;28;871;-60
2022/04/21 11:32:08;;;;;;;;;;;;;;;19.20;51.46;99745.94;4972398;28;1906;-60
2022/04/21 11:34:34;;;;;;;;;;;;;;;18.59;51.62;99754.72;4972365;28;883;-60
2022/04/21 11:37:04;;;;;;;;;;;;;;;18.03;55.25;99750.81;4972435;28;851;-60
2022/04/21 11:39:37;;;;;;;;;;;;;;;18.27;54.46;99736.34;4972378;28;815;-60
2022/04/21 11:42:04;;;;;;;;;;;;;;;18.46;51.95;99740.03;4958642;28;804;-60
2022/04/21 11:44:30;;;;;;;;;;;;;;;18.14;57.55;99728.81;4975964;28;832;-60
2022/04/21 11:46:57;;;;;;;;;;;;;;;17.95;51.57;99732.72;4975845;28;886;-60
2022/04/21 11:49:24;;;;;;;;;;;;;;;17.57;57.57;99742.00;4975796;28;978;-60
2022/04/21 11:51:54;;;;;;;;;;;;;;;17.46;55.92;99736.03;4975764;28;1859;-60
2022/04/21 11:54:20;;;;;;;;;;;;;;;17.67;56.69;99729.69;4975682;28;795;-60
2022/04/21 11:56:50;;;;;;;;;;;;;;;18.07;53.11;99725.50;4975564;28;946;-60
2022/04/21 11:59:17;;;;;;;;;;;;;;;18.65;53.53;99724.09;4976570;28;744;-59
2022/04/21 12:07:17;;;;;;;;;;;;;;;17.24;51.97;99716.38;4975836;28;626;-60
2022/04/21 12:09:48;;;;;;;;;;;;;;;16.84;54.44;99720.47;4975495;28;855;-60
2022/04/21 12:12:18;;;;;;;;;;;;;;;17.20;55.51;99713.75;4975918;28;1890;-60
2022/04/21 12:14:45;;;;;;;;;;;;;;;17.87;50.60;99720.25;4975425;28;923;-60
2022/04/21 12:17:12;;;;;;;;;;;;;;;17.50;52.63;99709.50;4975444;28;843;-60
2022/04/21 12:19:44;;;;;;;;;;;;;;;16.83;53.45;99698.59;4975561;28;863;-60
2022/04/21 12:22:16;;;;;;;;;;;;;;;17.18;55.83;99712.63;4975352;28;830;-59
2022/04/21 12:24:46;;;;;;;;;;;;;;;17.72;53.58;99712.31;4975277;28;1016;-60
2022/04/21 12:27:15;;;;;;;;;;;;;;;18.08;51.17;99705.47;4975007;28;1204;-60
2022/04/21 12:29:51;;;;;;;;;;;;;;;18.13;50.63;99707.66;4975185;28;831;-60
2022/04/21 12:32:24;;;;;;;;;;;;;;;18.30;51.30;99704.66;4974921;28;1971;-60
2022/04/21 12:34:51;;;;;;;;;;;;;;;18.73;49.96;99711.38;4975260;28;843;-60
2022/04/21 12:37:27;;;;;;;;;;;;;;;18.70;49.99;99701.13;4974979;28;941;-60
2022/04/21 12:39:54;;;;;;;;;;;;;;;18.33;48.44;99695.38;4975462;28;890;-60
2022/04/21 12:42:21;;;;;;;;;;;;;;;18.02;50.91;99701.69;4957743;28;1169;-60
2022/04/21 12:44:48;;;;;;;;;;;;;;;17.82;50.36;99690.84;4975170;28;795;-60
2022/04/21 12:47:17;;;;;;;;;;;;;;;18.34;48.64;99689.28;4974949;28;946;-59
2022/04/21 12:50:00;;;;;;;;;;;;;;;18.83;47.41;99687.81;4974851;28;827;-60
2022/04/21 12:52:31;;;;;;;;;;;;;;;18.95;46.67;99689.72;4974601;28;1898;-60
2022/04/21 12:54:56;;;;;;;;;;;;;;;18.95;47.48;99686.91;4974835;28;856;-60
2022/04/21 12:57:23;;;;;;;;;;;;;;;18.13;47.72;99692.91;4975354;28;1082;-60
2022/04/21 12:59:50;;;;;;;;;;;;;;;18.11;48.89;99687.75;4974836;28;868;-60
2022/04/21 13:02:18;;;;;;;;;;;;;;;18.18;46.97;99692.34;4975209;28;748;-60
2022/04/21 13:04:45;;;;;;;;;;;;;;;17.98;46.80;99689.09;4974941;28;913;-60
2022/04/21 13:07:12;;;;;;;;;;;;;;;16.94;53.33;99696.22;4974808;28;867;-60
2022/04/21 13:09:39;;;;;;;;;;;;;;;16.84;49.90;99692.56;4957510;28;898;-60
2022/04/21 13:12:06;;;;;;;;;;;;;;;17.36;50.50;99682.06;4974557;28;1944;-60
2022/04/21 13:14:32;;;;;;;;;;;;;;;17.84;45.94;99691.19;4974533;28;874;-60
2022/04/21 13:16:59;;;;;;;;;;;;;;;17.93;49.03;99684.88;4974372;28;843;-60
2022/04/21 13:19:26;;;;;;;;;;;;;;;18.04;51.17;99684.47;4975146;28;768;-60
2022/04/21 13:21:52;;;;;;;;;;;;;;;18.15;47.68;99684.84;4974199;28;828;-60
2022/04/21 13:24:23;;;;;;;;;;;;;;;18.18;46.63;99692.34;4974048;28;807;-60
2022/04/21 13:26:51;;;;;;;;;;;;;;;18.44;50.31;99678.16;4973768;28;1179;-60
2022/04/21 13:29:18;;;;;;;;;;;;;;;18.69;49.67;99666.75;4973926;28;928;-60
2022/04/21 13:34:30;;;;;;;;;;;;;;;19.48;48.60;99671.88;4974200;28;800;-60
2022/04/21 13:36:56;;;;;;;;;;;;;;;18.47;46.75;99666.03;4972885;28;1321;-60
2022/04/21 13:39:23;;;;;;;;;;;;;;;18.06;49.88;99660.41;4974015;28;895;-60
2022/04/21 13:41:50;;;;;;;;;;;;;;;18.46;49.03;99659.66;4974236;28;859;-60
2022/04/21 13:44:17;;;;;;;;;;;;;;;18.24;47.75;99651.31;4974260;28;878;-60
2022/04/21 13:46:43;;;;;;;;;;;;;;;18.38;47.43;99663.22;4974614;28;823;-60
2022/04/21 13:49:10;;;;;;;;;;;;;;;18.35;48.62;99657.28;4973699;28;799;-60
2022/04/21 13:51:37;;;;;;;;;;;;;;;18.35;46.04;99654.50;4973442;28;1878;-60
2022/04/21 13:54:04;;;;;;;;;;;;;;;18.27;46.50;99658.03;4973526;28;1060;-60
2022/04/21 13:56:30;;;;;;;;;;;;;;;18.38;47.48;99652.78;4956183;28;1221;-60
2022/04/21 13:58:57;;;;;;;;;;;;;;;18.41;48.00;99657.44;4973461;28;824;-59
2022/04/21 14:01:25;;;;;;;;;;;;;;;18.37;46.06;99656.84;4973481;28;811;-60
2022/04/21 14:03:52;;;;;;;;;;;;;;;18.10;45.94;99655.44;4972946;28;851;-59
2022/04/21 14:06:18;;;;;;;;;;;;;;;17.90;48.04;99655.00;4973323;28;973;-59
2022/04/21 14:08:45;;;;;;;;;;;;;;;17.91;45.94;99660.16;4973371;28;800;-60
2022/04/21 14:11:15;;;;;;;;;;;;;;;17.79;47.95;99654.59;4973429;28;1882;-59
2022/04/21 14:13:45;;;;;;;;;;;;;;;17.61;44.93;99653.25;4973485;28;890;-59
2022/04/21 14:16:15;;;;;;;;;;;;;;;17.61;47.03;99667.22;4973180;28;910;-59
2022/04/21 14:18:42;;;;;;;;;;;;;;;17.41;46.03;99656.38;4973208;28;830;-59
2022/04/21 14:21:09;;;;;;;;;;;;;;;17.46;47.91;99672.53;4973052;28;835;-59
2022/04/21 14:23:36;;;;;;;;;;;;;;;17.74;52.05;99662.34;4973012;28;866;-59
2022/04/21 14:26:05;;;;;;;;;;;;;;;17.92;51.13;99666.50;4972774;28;1384;-59
2022/04/21 14:28:33;;;;;;;;;;;;;;;18.21;46.92;99654.28;4973111;28;814;-59
2022/04/21 14:31:00;;;;;;;;;;;;;;;17.94;45.47;99667.66;4973002;28;1927;-59
2022/04/21 14:33:26;;;;;;;;;;;;;;;17.77;47.85;99666.22;4955524;28;1336;-59
2022/04/21 14:35:53;;;;;;;;;;;;;;;17.93;48.89;99674.47;4972864;28;995;-59